sensor_id;sensor_type;location;lat;lon;timestamp;pressure;altitude;pressure_sealevel;temperature;humidity
66945;BME280;53853;51.982;5.928;2022-07-23T00:01:38;101815.16;;;17.63;66.24
66945;BME280;53853;51.982;5.928;2022-07-23T00:04:08;101805.91;;;17.58;66.88
66945;BME280;53853;51.982;5.928;2022-07-23T00:06:38;101798.34;;;17.53;66.75
66945;BME280;53853;51.982;5.928;2022-07-23T00:09:07;101809.47;;;17.50;67.38
66945;BME280;53853;51.982;5.928;2022-07-23T00:11:40;101806.09;;;17.48;67.15
66945;BME280;53853;51.982;5.928;2022-07-23T00:14:10;101816.38;;;17.44;66.85
66945;BME280;53853;51.982;5.928;2022-07-23T00:16:39;101808.44;;;17.43;66.56
66945;BME280;53853;51.982;5.928;2022-07-23T00:19:09;101810.81;;;17.37;67.30
66945;BME280;53853;51.982;5.928;2022-07-23T00:21:39;101810.34;;;17.34;67.82
66945;BME280;53853;51.982;5.928;2022-07-23T00:24:09;101806.47;;;17.28;67.44
66945;BME280;53853;51.982;5.928;2022-07-23T00:26:41;101804.28;;;17.24;67.95
66945;BME280;53853;51.982;5.928;2022-07-23T00:29:11;101803.94;;;17.18;68.24
66945;BME280;53853;51.982;5.928;2022-07-23T00:31:41;101801.28;;;17.10;68.43
66945;BME280;53853;51.982;5.928;2022-07-23T00:34:11;101806.81;;;17.09;68.33
66945;BME280;53853;51.982;5.928;2022-07-23T00:36:41;101805.28;;;17.06;68.45
66945;BME280;53853;51.982;5.928;2022-07-23T00:39:11;101801.28;;;17.02;68.90
66945;BME280;53853;51.982;5.928;2022-07-23T00:41:43;101799.59;;;17.01;69.21
66945;BME280;53853;51.982;5.928;2022-07-23T00:44:18;101800.09;;;16.96;68.79
66945;BME280;53853;51.982;5.928;2022-07-23T00:46:50;101802.28;;;16.93;69.14
66945;BME280;53853;51.982;5.928;2022-07-23T00:49:21;101792.84;;;16.89;69.20
66945;BME280;53853;51.982;5.928;2022-07-23T00:51:51;101790.78;;;16.82;69.25
66945;BME280;53853;51.982;5.928;2022-07-23T00:54:23;101798.19;;;16.80;69.56
66945;BME280;53853;51.982;5.928;2022-07-23T00:56:57;101793.31;;;16.76;70.24
66945;BME280;53853;51.982;5.928;2022-07-23T00:59:27;101796.34;;;16.73;70.68
66945;BME280;53853;51.982;5.928;2022-07-23T01:01:57;101803.75;;;16.71;71.02
66945;BME280;53853;51.982;5.928;2022-07-23T01:04:27;101792.97;;;16.71;70.51
66945;BME280;53853;51.982;5.928;2022-07-23T01:06:57;101792.31;;;16.69;70.28
66945;BME280;53853;51.982;5.928;2022-07-23T01:09:27;101788.09;;;16.66;70.90
66945;BME280;53853;51.982;5.928;2022-07-23T01:12:00;101784.56;;;16.65;70.36
66945;BME280;53853;51.982;5.928;2022-07-23T01:14:31;101800.19;;;16.62;71.19
66945;BME280;53853;51.982;5.928;2022-07-23T01:17:01;101789.09;;;16.57;71.46
66945;BME280;53853;51.982;5.928;2022-07-23T01:19:31;101787.59;;;16.54;71.55
66945;BME280;53853;51.982;5.928;2022-07-23T01:22:03;101785.22;;;16.51;72.09
66945;BME280;53853;51.982;5.928;2022-07-23T01:24:36;101778.16;;;16.50;71.30
66945;BME280;53853;51.982;5.928;2022-07-23T01:27:07;101780.34;;;16.46;71.90
66945;BME280;53853;51.982;5.928;2022-07-23T01:29:38;101787.06;;;16.42;71.75
66945;BME280;53853;51.982;5.928;2022-07-23T01:32:15;101776.47;;;16.41;71.75
66945;BME280;53853;51.982;5.928;2022-07-23T01:34:45;101775.47;;;16.42;71.33
66945;BME280;53853;51.982;5.928;2022-07-23T01:37:15;101781.84;;;16.41;71.49
66945;BME280;53853;51.982;5.928;2022-07-23T01:39:48;101779.47;;;16.38;71.44
66945;BME280;53853;51.982;5.928;2022-07-23T01:42:18;101779.81;;;16.35;71.24
66945;BME280;53853;51.982;5.928;2022-07-23T01:44:48;101776.63;;;16.31;71.83
66945;BME280;53853;51.982;5.928;2022-07-23T01:47:20;101777.78;;;16.28;72.30
66945;BME280;53853;51.982;5.928;2022-07-23T01:49:53;101776.44;;;16.24;72.45
66945;BME280;53853;51.982;5.928;2022-07-23T01:52:49;101774.41;;;16.26;71.86
66945;BME280;53853;51.982;5.928;2022-07-23T01:55:22;101775.56;;;16.24;72.31
66945;BME280;53853;51.982;5.928;2022-07-23T01:57:52;101787.50;;;16.21;72.20
66945;BME280;53853;51.982;5.928;2022-07-23T02:00:27;101785.81;;;16.20;72.31
66945;BME280;53853;51.982;5.928;2022-07-23T02:02:58;101776.91;;;16.20;72.17
66945;BME280;53853;51.982;5.928;2022-07-23T02:05:29;101782.78;;;16.15;72.49
66945;BME280;53853;51.982;5.928;2022-07-23T02:08:00;101780.44;;;16.12;72.50
66945;BME280;53853;51.982;5.928;2022-07-23T02:10:38;101778.72;;;16.11;72.96
66945;BME280;53853;51.982;5.928;2022-07-23T02:13:08;101785.13;;;16.10;72.58
66945;BME280;53853;51.982;5.928;2022-07-23T02:15:37;101774.53;;;16.08;72.52
66945;BME280;53853;51.982;5.928;2022-07-23T02:18:07;101785.47;;;16.07;72.61
66945;BME280;53853;51.982;5.928;2022-07-23T02:20:37;101778.38;;;16.06;72.20
66945;BME280;53853;51.982;5.928;2022-07-23T02:23:08;101773.34;;;16.03;72.42
66945;BME280;53853;51.982;5.928;2022-07-23T02:25:41;101780.03;;;15.99;72.81
66945;BME280;53853;51.982;5.928;2022-07-23T02:28:11;101773.47;;;15.93;72.85
66945;BME280;53853;51.982;5.928;2022-07-23T02:30:42;101769.25;;;15.90;73.21
66945;BME280;53853;51.982;5.928;2022-07-23T02:33:12;101772.09;;;15.89;72.76
66945;BME280;53853;51.982;5.928;2022-07-23T02:35:42;101774.94;;;15.87;72.76
66945;BME280;53853;51.982;5.928;2022-07-23T02:38:12;101773.44;;;15.85;73.06
66945;BME280;53853;51.982;5.928;2022-07-23T02:40:45;101767.22;;;15.84;73.30
66945;BME280;53853;51.982;5.928;2022-07-23T02:43:15;101768.22;;;15.83;73.15
66945;BME280;53853;51.982;5.928;2022-07-23T02:45:45;101776.28;;;15.83;73.09
66945;BME280;53853;51.982;5.928;2022-07-23T02:48:15;101779.31;;;15.80;73.28
66945;BME280;53853;51.982;5.928;2022-07-23T02:50:47;101782.16;;;15.79;73.24
66945;BME280;53853;51.982;5.928;2022-07-23T02:53:23;101773.41;;;15.77;73.36
66945;BME280;53853;51.982;5.928;2022-07-23T02:55:56;101777.91;;;15.76;73.31
66945;BME280;53853;51.982;5.928;2022-07-23T02:58:26;101779.91;;;15.74;73.38
66945;BME280;53853;51.982;5.928;2022-07-23T03:00:56;101781.06;;;15.71;73.27
66945;BME280;53853;51.982;5.928;2022-07-23T03:03:26;101779.06;;;15.73;72.96
66945;BME280;53853;51.982;5.928;2022-07-23T03:05:56;101774.69;;;15.72;72.81
66945;BME280;53853;51.982;5.928;2022-07-23T03:08:26;101774.69;;;15.72;73.09
66945;BME280;53853;51.982;5.928;2022-07-23T03:10:59;101787.31;;;15.72;72.81
66945;BME280;53853;51.982;5.928;2022-07-23T03:13:29;101785.44;;;15.72;72.44
66945;BME280;53853;51.982;5.928;2022-07-23T03:15:59;101771.19;;;15.72;72.42
66945;BME280;53853;51.982;5.928;2022-07-23T03:18:30;101762.41;;;15.70;72.21
66945;BME280;53853;51.982;5.928;2022-07-23T03:21:00;101778.84;;;15.67;72.64
66945;BME280;53853;51.982;5.928;2022-07-23T03:23:30;101778.66;;;15.60;72.98
66945;BME280;53853;51.982;5.928;2022-07-23T03:26:02;101781.50;;;15.58;73.35
66945;BME280;53853;51.982;5.928;2022-07-23T03:28:33;101780.00;;;15.56;73.49
66945;BME280;53853;51.982;5.928;2022-07-23T03:31:03;101783.84;;;15.53;73.72
66945;BME280;53853;51.982;5.928;2022-07-23T03:33:33;101784.97;;;15.51;74.29
66945;BME280;53853;51.982;5.928;2022-07-23T03:36:02;101785.13;;;15.49;74.13
66945;BME280;53853;51.982;5.928;2022-07-23T03:38:37;101789.84;;;15.47;74.44
66945;BME280;53853;51.982;5.928;2022-07-23T03:41:09;101787.63;;;15.43;74.06
66945;BME280;53853;51.982;5.928;2022-07-23T03:43:39;101783.59;;;15.38;74.12
66945;BME280;53853;51.982;5.928;2022-07-23T03:46:09;101787.94;;;15.39;74.07
66945;BME280;53853;51.982;5.928;2022-07-23T03:48:39;101792.47;;;15.39;74.11
66945;BME280;53853;51.982;5.928;2022-07-23T03:51:09;101793.31;;;15.39;74.14
66945;BME280;53853;51.982;5.928;2022-07-23T03:53:39;101791.66;;;15.38;74.06
66945;BME280;53853;51.982;5.928;2022-07-23T03:56:11;101791.81;;;15.37;74.72
66945;BME280;53853;51.982;5.928;2022-07-23T03:58:41;101799.88;;;15.37;74.62
66945;BME280;53853;51.982;5.928;2022-07-23T04:01:11;101806.06;;;15.37;74.69
66945;BME280;53853;51.982;5.928;2022-07-23T04:03:41;101794.19;;;15.40;74.33
66945;BME280;53853;51.982;5.928;2022-07-23T04:06:12;101795.00;;;15.40;74.12
66945;BME280;53853;51.982;5.928;2022-07-23T04:08:42;101799.56;;;15.40;74.07
66945;BME280;53853;51.982;5.928;2022-07-23T04:11:14;101803.06;;;15.40;74.14
66945;BME280;53853;51.982;5.928;2022-07-23T04:13:44;101800.38;;;15.40;74.45
66945;BME280;53853;51.982;5.928;2022-07-23T04:16:14;101799.19;;;15.43;74.31
66945;BME280;53853;51.982;5.928;2022-07-23T04:18:46;101801.72;;;15.45;73.95
66945;BME280;53853;51.982;5.928;2022-07-23T04:21:19;101791.84;;;15.45;74.32
66945;BME280;53853;51.982;5.928;2022-07-23T04:23:49;101791.84;;;15.45;74.81
66945;BME280;53853;51.982;5.928;2022-07-23T04:26:23;101787.16;;;15.47;74.59
66945;BME280;53853;51.982;5.928;2022-07-23T04:28:53;101784.47;;;15.47;74.70
66945;BME280;53853;51.982;5.928;2022-07-23T04:31:23;101789.00;;;15.47;74.82
66945;BME280;53853;51.982;5.928;2022-07-23T04:33:53;101792.53;;;15.47;74.97
66945;BME280;53853;51.982;5.928;2022-07-23T04:36:23;101796.03;;;15.48;75.04
66945;BME280;53853;51.982;5.928;2022-07-23T04:38:53;101794.06;;;15.50;74.76
66945;BME280;53853;51.982;5.928;2022-07-23T04:41:25;101798.25;;;15.52;74.38
66945;BME280;53853;51.982;5.928;2022-07-23T04:43:55;101796.94;;;15.56;74.48
66945;BME280;53853;51.982;5.928;2022-07-23T04:46:25;101806.56;;;15.59;74.27
66945;BME280;53853;51.982;5.928;2022-07-23T04:48:57;101797.16;;;15.63;74.36
66945;BME280;53853;51.982;5.928;2022-07-23T04:51:27;101797.66;;;15.67;73.92
66945;BME280;53853;51.982;5.928;2022-07-23T04:53:57;101802.72;;;15.70;73.84
66945;BME280;53853;51.982;5.928;2022-07-23T04:56:30;101802.25;;;15.74;73.74
66945;BME280;53853;51.982;5.928;2022-07-23T04:59:00;101804.47;;;15.79;73.60
66945;BME280;53853;51.982;5.928;2022-07-23T05:01:30;101811.22;;;15.83;73.74
66945;BME280;53853;51.982;5.928;2022-07-23T05:04:00;101798.16;;;15.88;73.92
66945;BME280;53853;51.982;5.928;2022-07-23T05:06:33;101799.53;;;15.92;73.78
66945;BME280;53853;51.982;5.928;2022-07-23T05:09:03;101798.00;;;15.98;73.43
66945;BME280;53853;51.982;5.928;2022-07-23T05:11:36;101799.91;;;16.06;73.13
66945;BME280;53853;51.982;5.928;2022-07-23T05:14:06;101806.66;;;16.10;73.00
66945;BME280;53853;51.982;5.928;2022-07-23T05:16:39;101805.28;;;16.14;73.19
66945;BME280;53853;51.982;5.928;2022-07-23T05:19:14;101794.94;;;16.27;73.46
66945;BME280;53853;51.982;5.928;2022-07-23T05:21:45;101805.72;;;16.52;73.70
66945;BME280;53853;51.982;5.928;2022-07-23T05:24:15;101819.56;;;16.82;73.22
66945;BME280;53853;51.982;5.928;2022-07-23T05:26:48;101815.91;;;17.08;71.87
66945;BME280;53853;51.982;5.928;2022-07-23T05:29:18;101810.34;;;17.26;70.83
66945;BME280;53853;51.982;5.928;2022-07-23T05:31:48;101825.31;;;17.45;70.20
66945;BME280;53853;51.982;5.928;2022-07-23T05:34:18;101832.53;;;17.61;69.78
66945;BME280;53853;51.982;5.928;2022-07-23T05:36:48;101837.69;;;17.79;69.61
66945;BME280;53853;51.982;5.928;2022-07-23T05:39:18;101838.00;;;18.00;69.20
66945;BME280;53853;51.982;5.928;2022-07-23T05:41:51;101842.63;;;18.23;68.54
66945;BME280;53853;51.982;5.928;2022-07-23T05:44:20;101836.88;;;18.49;67.65
66945;BME280;53853;51.982;5.928;2022-07-23T05:46:50;101836.75;;;18.74;66.42
66945;BME280;53853;51.982;5.928;2022-07-23T05:49:22;101846.56;;;18.98;65.42
66945;BME280;53853;51.982;5.928;2022-07-23T05:51:54;101842.03;;;19.13;63.42
66945;BME280;53853;51.982;5.928;2022-07-23T05:54:35;101848.03;;;19.24;63.69
66945;BME280;53853;51.982;5.928;2022-07-23T05:57:07;101861.00;;;19.28;63.22
66945;BME280;53853;51.982;5.928;2022-07-23T05:59:37;101854.56;;;19.29;62.29
66945;BME280;53853;51.982;5.928;2022-07-23T06:02:07;101858.78;;;19.32;62.45
66945;BME280;53853;51.982;5.928;2022-07-23T06:04:37;101859.88;;;19.23;60.82
66945;BME280;53853;51.982;5.928;2022-07-23T06:07:21;101861.44;;;19.17;61.49
66945;BME280;53853;51.982;5.928;2022-07-23T06:09:51;101866.72;;;19.10;61.09
66945;BME280;53853;51.982;5.928;2022-07-23T06:12:24;101861.47;;;18.94;61.79
66945;BME280;53853;51.982;5.928;2022-07-23T06:14:54;101859.97;;;18.83;61.71
66945;BME280;53853;51.982;5.928;2022-07-23T06:17:24;101858.47;;;18.80;62.56
66945;BME280;53853;51.982;5.928;2022-07-23T06:19:54;101855.72;;;18.65;62.75
66945;BME280;53853;51.982;5.928;2022-07-23T06:22:25;101853.41;;;18.54;63.50
66945;BME280;53853;51.982;5.928;2022-07-23T06:24:55;101852.25;;;18.49;63.78
66945;BME280;53853;51.982;5.928;2022-07-23T06:27:27;101859.34;;;18.50;62.87
66945;BME280;53853;51.982;5.928;2022-07-23T06:29:57;101861.00;;;18.51;62.61
66945;BME280;53853;51.982;5.928;2022-07-23T06:32:27;101860.19;;;18.50;62.73
66945;BME280;53853;51.982;5.928;2022-07-23T06:35:00;101855.78;;;18.49;62.77
66945;BME280;53853;51.982;5.928;2022-07-23T06:37:29;101855.97;;;18.47;62.28
66945;BME280;53853;51.982;5.928;2022-07-23T06:40:02;101859.91;;;18.37;62.21
66945;BME280;53853;51.982;5.928;2022-07-23T06:42:38;101862.78;;;18.35;62.96
66945;BME280;53853;51.982;5.928;2022-07-23T06:45:15;101872.56;;;18.36;63.62
66945;BME280;53853;51.982;5.928;2022-07-23T06:47:45;101862.09;;;18.41;63.88
66945;BME280;53853;51.982;5.928;2022-07-23T06:50:15;101872.34;;;18.46;63.71
66945;BME280;53853;51.982;5.928;2022-07-23T06:52:46;101878.25;;;18.50;63.66
66945;BME280;53853;51.982;5.928;2022-07-23T06:55:16;101878.72;;;18.53;62.88
66945;BME280;53853;51.982;5.928;2022-07-23T06:57:49;101874.09;;;18.62;62.71
66945;BME280;53853;51.982;5.928;2022-07-23T07:00:19;101875.19;;;18.53;62.29
66945;BME280;53853;51.982;5.928;2022-07-23T07:02:49;101877.72;;;18.54;63.01
66945;BME280;53853;51.982;5.928;2022-07-23T07:05:19;101882.59;;;18.51;61.56
66945;BME280;53853;51.982;5.928;2022-07-23T07:07:49;101880.59;;;18.44;61.73
66945;BME280;53853;51.982;5.928;2022-07-23T07:10:20;101882.00;;;18.40;61.65
66945;BME280;53853;51.982;5.928;2022-07-23T07:12:53;101885.88;;;18.38;61.83
66945;BME280;53853;51.982;5.928;2022-07-23T07:15:23;101895.13;;;18.43;61.53
66945;BME280;53853;51.982;5.928;2022-07-23T07:17:53;101875.91;;;18.46;61.42
66945;BME280;53853;51.982;5.928;2022-07-23T07:20:23;101881.59;;;18.52;61.61
66945;BME280;53853;51.982;5.928;2022-07-23T07:22:52;101877.34;;;18.57;61.33
66945;BME280;53853;51.982;5.928;2022-07-23T07:25:22;101880.19;;;18.64;61.09
66945;BME280;53853;51.982;5.928;2022-07-23T07:27:55;101876.25;;;18.67;60.27
66945;BME280;53853;51.982;5.928;2022-07-23T07:30:25;101884.16;;;18.76;59.41
66945;BME280;53853;51.982;5.928;2022-07-23T07:32:55;101884.00;;;18.78;60.54
66945;BME280;53853;51.982;5.928;2022-07-23T07:35:25;101881.09;;;18.79;60.15
66945;BME280;53853;51.982;5.928;2022-07-23T07:37:55;101883.59;;;18.81;59.99
66945;BME280;53853;51.982;5.928;2022-07-23T07:40:25;101881.44;;;18.85;59.13
66945;BME280;53853;51.982;5.928;2022-07-23T07:42:58;101879.22;;;18.88;59.30
66945;BME280;53853;51.982;5.928;2022-07-23T07:45:28;101883.78;;;18.88;58.40
66945;BME280;53853;51.982;5.928;2022-07-23T07:47:58;101885.81;;;18.86;58.92
66945;BME280;53853;51.982;5.928;2022-07-23T07:50:28;101886.31;;;18.89;59.25
66945;BME280;53853;51.982;5.928;2022-07-23T07:52:58;101888.47;;;18.94;58.93
66945;BME280;53853;51.982;5.928;2022-07-23T07:55:28;101887.94;;;18.98;58.75
66945;BME280;53853;51.982;5.928;2022-07-23T07:58:00;101899.97;;;19.11;58.31
66945;BME280;53853;51.982;5.928;2022-07-23T08:00:30;101906.72;;;19.15;58.18
66945;BME280;53853;51.982;5.928;2022-07-23T08:03:00;101902.94;;;19.24;58.12
66945;BME280;53853;51.982;5.928;2022-07-23T08:05:31;101916.56;;;19.31;57.78
66945;BME280;53853;51.982;5.928;2022-07-23T08:08:01;101907.06;;;19.35;57.58
66945;BME280;53853;51.982;5.928;2022-07-23T08:10:31;101915.09;;;19.43;57.55
66945;BME280;53853;51.982;5.928;2022-07-23T08:13:03;101915.22;;;19.50;57.37
66945;BME280;53853;51.982;5.928;2022-07-23T08:15:33;101915.69;;;19.53;57.23
66945;BME280;53853;51.982;5.928;2022-07-23T08:18:03;101917.00;;;19.58;56.26
66945;BME280;53853;51.982;5.928;2022-07-23T08:20:33;101910.00;;;19.63;56.89
66945;BME280;53853;51.982;5.928;2022-07-23T08:23:05;101910.50;;;19.67;56.64
66945;BME280;53853;51.982;5.928;2022-07-23T08:25:37;101912.66;;;19.71;56.44
66945;BME280;53853;51.982;5.928;2022-07-23T08:28:11;101921.41;;;19.73;56.77
66945;BME280;53853;51.982;5.928;2022-07-23T08:30:43;101919.47;;;19.82;56.44
66945;BME280;53853;51.982;5.928;2022-07-23T08:33:14;101923.50;;;19.86;56.11
66945;BME280;53853;51.982;5.928;2022-07-23T08:35:46;101920.81;;;19.86;56.12
66945;BME280;53853;51.982;5.928;2022-07-23T08:38:18;101920.25;;;19.91;55.91
66945;BME280;53853;51.982;5.928;2022-07-23T08:40:51;101913.44;;;19.95;55.51
66945;BME280;53853;51.982;5.928;2022-07-23T08:43:32;101912.69;;;20.01;55.81
66945;BME280;53853;51.982;5.928;2022-07-23T08:46:03;101917.84;;;20.11;56.24
66945;BME280;53853;51.982;5.928;2022-07-23T08:48:35;101924.63;;;20.22;56.84
66945;BME280;53853;51.982;5.928;2022-07-23T08:51:06;101925.00;;;20.34;55.80
66945;BME280;53853;51.982;5.928;2022-07-23T08:53:37;101927.16;;;20.38;55.69
66945;BME280;53853;51.982;5.928;2022-07-23T08:56:09;101922.66;;;20.45;55.95
66945;BME280;53853;51.982;5.928;2022-07-23T08:58:41;101925.63;;;20.51;55.49
66945;BME280;53853;51.982;5.928;2022-07-23T09:01:11;101922.84;;;20.59;55.23
66945;BME280;53853;51.982;5.928;2022-07-23T09:03:41;101921.91;;;20.67;52.83
66945;BME280;53853;51.982;5.928;2022-07-23T09:06:11;101920.03;;;20.67;52.53
66945;BME280;53853;51.982;5.928;2022-07-23T09:08:43;101914.88;;;20.72;52.78
66945;BME280;53853;51.982;5.928;2022-07-23T09:11:16;101915.31;;;20.76;52.89
66945;BME280;53853;51.982;5.928;2022-07-23T09:13:51;101918.31;;;20.81;53.47
66945;BME280;53853;51.982;5.928;2022-07-23T09:16:26;101918.59;;;20.86;53.52
66945;BME280;53853;51.982;5.928;2022-07-23T09:18:57;101914.72;;;20.95;53.36
66945;BME280;53853;51.982;5.928;2022-07-23T09:21:30;101920.84;;;21.04;53.69
66945;BME280;53853;51.982;5.928;2022-07-23T09:24:01;101918.56;;;21.08;53.74
66945;BME280;53853;51.982;5.928;2022-07-23T09:26:34;101920.91;;;21.11;52.09
66945;BME280;53853;51.982;5.928;2022-07-23T09:29:09;101922.41;;;21.13;52.72
66945;BME280;53853;51.982;5.928;2022-07-23T09:31:45;101908.28;;;21.18;53.18
66945;BME280;53853;51.982;5.928;2022-07-23T09:34:20;101916.25;;;21.26;53.40
66945;BME280;53853;51.982;5.928;2022-07-23T09:36:52;101913.78;;;21.31;51.75
66945;BME280;53853;51.982;5.928;2022-07-23T09:39:26;101922.59;;;21.33;51.59
66945;BME280;53853;51.982;5.928;2022-07-23T09:41:56;101919.59;;;21.28;50.77
66945;BME280;53853;51.982;5.928;2022-07-23T09:44:29;101920.47;;;21.29;51.25
66945;BME280;53853;51.982;5.928;2022-07-23T09:47:00;101911.28;;;21.30;51.32
66945;BME280;53853;51.982;5.928;2022-07-23T09:49:31;101916.69;;;21.30;51.73
66945;BME280;53853;51.982;5.928;2022-07-23T09:52:01;101916.31;;;21.33;51.85
66945;BME280;53853;51.982;5.928;2022-07-23T09:54:33;101920.75;;;21.41;51.36
66945;BME280;53853;51.982;5.928;2022-07-23T09:57:06;101921.13;;;21.52;50.75
66945;BME280;53853;51.982;5.928;2022-07-23T09:59:43;101922.84;;;21.60;49.22
66945;BME280;53853;51.982;5.928;2022-07-23T10:02:14;101922.66;;;21.62;49.75
66945;BME280;53853;51.982;5.928;2022-07-23T10:05:05;101918.66;;;21.58;49.36
66945;BME280;53853;51.982;5.928;2022-07-23T10:08:12;101922.66;;;21.62;49.93
66945;BME280;53853;51.982;5.928;2022-07-23T10:11:01;101927.94;;;21.70;49.70
66945;BME280;53853;51.982;5.928;2022-07-23T10:13:52;101914.44;;;21.83;49.37
66945;BME280;53853;51.982;5.928;2022-07-23T10:16:34;101914.88;;;21.87;49.46
66945;BME280;53853;51.982;5.928;2022-07-23T10:19:05;101903.22;;;21.93;49.98
66945;BME280;53853;51.982;5.928;2022-07-23T10:21:42;101913.28;;;21.99;50.33
66945;BME280;53853;51.982;5.928;2022-07-23T10:24:21;101897.00;;;21.99;47.72
66945;BME280;53853;51.982;5.928;2022-07-23T10:27:04;101916.41;;;21.96;47.50
66945;BME280;53853;51.982;5.928;2022-07-23T10:29:45;101908.25;;;21.96;47.31
66945;BME280;53853;51.982;5.928;2022-07-23T10:32:27;101908.47;;;21.95;48.15
66945;BME280;53853;51.982;5.928;2022-07-23T10:35:07;101907.88;;;21.99;47.71
66945;BME280;53853;51.982;5.928;2022-07-23T10:37:43;101904.56;;;22.04;47.30
66945;BME280;53853;51.982;5.928;2022-07-23T10:40:15;101905.25;;;22.13;48.30
66945;BME280;53853;51.982;5.928;2022-07-23T10:42:46;101906.53;;;22.23;48.66
66945;BME280;53853;51.982;5.928;2022-07-23T10:45:26;101907.03;;;22.34;48.08
66945;BME280;53853;51.982;5.928;2022-07-23T10:48:13;101894.50;;;22.39;47.17
66945;BME280;53853;51.982;5.928;2022-07-23T10:50:45;101902.69;;;22.46;47.41
66945;BME280;53853;51.982;5.928;2022-07-23T10:53:55;101898.53;;;22.57;46.20
66945;BME280;53853;51.982;5.928;2022-07-23T11:02:57;101900.50;;;22.70;47.12
66945;BME280;53853;51.982;5.928;2022-07-23T11:05:40;101900.72;;;22.82;46.00
66945;BME280;53853;51.982;5.928;2022-07-23T11:08:13;101898.41;;;22.85;44.96
66945;BME280;53853;51.982;5.928;2022-07-23T11:13:37;101896.34;;;22.87;45.52
66945;BME280;53853;51.982;5.928;2022-07-23T11:16:16;101907.03;;;22.95;46.24
66945;BME280;53853;51.982;5.928;2022-07-23T11:19:09;101903.91;;;23.05;44.56
66945;BME280;53853;51.982;5.928;2022-07-23T11:21:57;101906.41;;;23.07;45.11
66945;BME280;53853;51.982;5.928;2022-07-23T11:24:27;101903.94;;;23.12;45.35
66945;BME280;53853;51.982;5.928;2022-07-23T11:27:02;101898.69;;;23.17;44.79
66945;BME280;53853;51.982;5.928;2022-07-23T11:29:43;101900.59;;;23.23;45.59
66945;BME280;53853;51.982;5.928;2022-07-23T11:32:36;101894.50;;;23.34;45.11
66945;BME280;53853;51.982;5.928;2022-07-23T11:35:25;101898.91;;;23.42;43.36
66945;BME280;53853;51.982;5.928;2022-07-23T11:38:05;101903.13;;;23.45;43.08
66945;BME280;53853;51.982;5.928;2022-07-23T11:40:35;101896.44;;;23.47;42.86
66945;BME280;53853;51.982;5.928;2022-07-23T11:43:07;101899.16;;;23.47;41.56
66945;BME280;53853;51.982;5.928;2022-07-23T11:45:40;101890.97;;;23.47;42.61
66945;BME280;53853;51.982;5.928;2022-07-23T11:48:19;101897.25;;;23.48;42.94
66945;BME280;53853;51.982;5.928;2022-07-23T11:50:52;101895.38;;;23.42;43.01
66945;BME280;53853;51.982;5.928;2022-07-23T11:53:23;101895.59;;;23.33;43.33
66945;BME280;53853;51.982;5.928;2022-07-23T11:55:53;101894.72;;;23.33;43.07
66945;BME280;53853;51.982;5.928;2022-07-23T11:58:23;101892.25;;;23.31;43.14
66945;BME280;53853;51.982;5.928;2022-07-23T12:00:56;101898.31;;;23.27;42.88
66945;BME280;53853;51.982;5.928;2022-07-23T12:03:26;101889.28;;;23.26;43.28
66945;BME280;53853;51.982;5.928;2022-07-23T12:06:00;101898.94;;;23.29;43.70
66945;BME280;53853;51.982;5.928;2022-07-23T12:08:30;101890.34;;;23.32;43.73
66945;BME280;53853;51.982;5.928;2022-07-23T12:11:00;101900.59;;;23.37;44.54
66945;BME280;53853;51.982;5.928;2022-07-23T12:13:30;101898.06;;;23.48;43.55
66945;BME280;53853;51.982;5.928;2022-07-23T12:16:00;101894.94;;;23.51;42.92
66945;BME280;53853;51.982;5.928;2022-07-23T12:18:32;101897.44;;;23.60;43.38
66945;BME280;53853;51.982;5.928;2022-07-23T12:21:05;101897.66;;;23.65;42.77
66945;BME280;53853;51.982;5.928;2022-07-23T12:23:35;101891.59;;;23.69;43.83
66945;BME280;53853;51.982;5.928;2022-07-23T12:26:05;101894.09;;;23.78;43.64
66945;BME280;53853;51.982;5.928;2022-07-23T12:28:38;101894.69;;;23.80;43.55
66945;BME280;53853;51.982;5.928;2022-07-23T12:31:10;101890.06;;;23.80;44.13
66945;BME280;53853;51.982;5.928;2022-07-23T12:33:42;101895.09;;;23.90;44.64
66945;BME280;53853;51.982;5.928;2022-07-23T12:36:14;101908.91;;;24.02;42.85
66945;BME280;53853;51.982;5.928;2022-07-23T12:38:47;101902.22;;;24.04;42.45
66945;BME280;53853;51.982;5.928;2022-07-23T12:41:18;101892.94;;;24.12;42.34
66945;BME280;53853;51.982;5.928;2022-07-23T12:43:48;101892.53;;;24.15;43.48
66945;BME280;53853;51.982;5.928;2022-07-23T12:46:19;101887.91;;;24.22;43.47
66945;BME280;53853;51.982;5.928;2022-07-23T12:48:53;101884.94;;;24.31;42.49
66945;BME280;53853;51.982;5.928;2022-07-23T12:51:27;101880.75;;;24.35;42.55
66945;BME280;53853;51.982;5.928;2022-07-23T12:54:04;101883.41;;;24.41;42.79
66945;BME280;53853;51.982;5.928;2022-07-23T12:56:37;101878.09;;;24.53;42.59
66945;BME280;53853;51.982;5.928;2022-07-23T12:59:09;101868.00;;;24.67;40.98
66945;BME280;53853;51.982;5.928;2022-07-23T13:01:41;101870.50;;;24.69;41.73
66945;BME280;53853;51.982;5.928;2022-07-23T13:04:18;101879.28;;;24.71;42.41
66945;BME280;53853;51.982;5.928;2022-07-23T13:06:54;101872.75;;;24.78;41.89
66945;BME280;53853;51.982;5.928;2022-07-23T13:09:26;101871.09;;;24.77;41.63
66945;BME280;53853;51.982;5.928;2022-07-23T13:11:57;101876.34;;;24.79;41.73
66945;BME280;53853;51.982;5.928;2022-07-23T13:14:28;101876.66;;;24.89;42.53
66945;BME280;53853;51.982;5.928;2022-07-23T13:16:58;101879.97;;;24.98;42.22
66945;BME280;53853;51.982;5.928;2022-07-23T13:19:28;101879.97;;;24.98;40.68
66945;BME280;53853;51.982;5.928;2022-07-23T13:22:01;101877.91;;;24.93;41.65
66945;BME280;53853;51.982;5.928;2022-07-23T13:24:31;101885.22;;;25.00;41.98
66945;BME280;53853;51.982;5.928;2022-07-23T13:27:01;101882.03;;;25.03;40.98